ADDS METAR Data INFO
IDs: Format: Raw Decoded Include TAF

Data at: 1951 UTC 14 Aug 2018

KLWT 141854Z AUTO 00000KT 10SM CLR 23/09 A3005 RMK AO2 SLP145 T02330089
KLWT 141754Z AUTO VRB03KT 10SM FEW070 22/09 A3006 RMK AO2 SLP151 T02220094 10222 20089 58007
KLWT 141654Z AUTO VRB04KT 10SM CLR 20/08 A3007 RMK AO2 SLP156 T02000083
KLWT 141554Z AUTO VRB03KT 10SM SCT060 18/07 A3008 RMK AO2 SLP159 T01780072
KLWT 141454Z AUTO 00000KT 10SM CLR 16/08 A3009 RMK AO2 SLP162 T01560083 53004
KLWT 141354Z AUTO 19004KT 10SM CLR 13/08 A3008 RMK AO2 SLP160 T01280083
KLWT 141254Z AUTO 16003KT 10SM CLR 10/07 A3008 RMK AO2 SLP162 T01000067
KLWT 141154Z AUTO 17006KT 10SM CLR 09/06 A3007 RMK AO2 SLP162 T00940061 10139 20089 58010
KLWT 141054Z AUTO 17005KT 10SM SCT055 11/07 A3009 RMK AO2 SLP165 T01110067
KLWT 140954Z AUTO 17006KT 10SM BKN055 11/06 A3010 RMK AO2 SLP170 T01060061
KLWT 140854Z AUTO 09005KT 10SM CLR 11/07 A3011 RMK AO2 SLP174 T01110067 58006
KLWT 140754Z AUTO 11005KT 10SM CLR 11/07 A3012 RMK AO2 SLP180 T01110067
KLWT 140654Z AUTO 12003KT 10SM SCT080 13/07 A3013 RMK AO2 SLP183 T01330072 402220100
KLWT 140554Z AUTO 09006KT 10SM FEW070 13/07 A3013 RMK AO2 SLP185 T01330072 10211 20133 50000
KLWT 140454Z AUTO 10006KT 10SM BKN055 14/07 A3014 RMK AO2 SLP190 T01440072
KLWT 140354Z AUTO 09008KT 10SM CLR 16/08 A3015 RMK AO2 SLP190 T01610078
KLWT 140254Z AUTO 11007KT 10SM FEW055 17/08 A3013 RMK AO2 SLP183 T01720083 55002
KLWT 140154Z AUTO 11008KT 10SM OVC055 20/08 A3013 RMK AO2 SLP178 T02000078
KLWT 140054Z AUTO 11008KT 10SM CLR 21/08 A3013 RMK AO2 SLP179 T02060083
KLWT 132354Z AUTO 12007KT 10SM CLR 22/09 A3014 RMK AO2 SLP181 T02170089 10222 20150 56013
KLWT 132254Z AUTO 12004KT 10SM CLR 21/08 A3014 RMK AO2 SLP182 T02110083
KLWT 132154Z AUTO 00000KT 10SM SCT046 20/08 A3016 RMK AO2 SLP188 T02000083
KLWT 132054Z AUTO 00000KT 10SM SCT046 BKN060 20/08 A3018 RMK AO2 SLP194 T02000078 58010
KLWT 131954Z AUTO 13004KT 10SM OVC065 18/08 A3019 RMK AO2 SLP201 T01780083
KLWT 131854Z AUTO 15003KT 10SM OVC060 17/08 A3020 RMK AO2 SLP203 T01670078
KLWT 131754Z AUTO 00000KT 10SM BKN060 BKN075 15/08 A3021 RMK AO2 SLP207 T01500083 10156 20100 58000
KLWT 131654Z AUTO 00000KT 10SM OVC060 13/08 A3022 RMK AO2 SLP206 T01330078
KLWT 131554Z AUTO 27007KT 10SM BKN060 OVC090 12/08 A3022 RMK AO2 SLP211 T01220078
KLWT 131454Z AUTO 26009KT 10SM OVC090 12/08 A3021 RMK AO2 SLP203 T01220078 51015
KLWT 131354Z AUTO 27009KT 10SM OVC085 12/08 A3020 RMK AO2 SLP195 T01220078
KLWT 131254Z AUTO 24007KT 10SM OVC085 11/07 A3018 RMK AO2 SLP187 T01110067
KLWT 131154Z AUTO 22005KT 10SM BKN085 11/06 A3016 RMK AO2 SLP179 T01060056 10189 20106 51007
KLWT 131054Z AUTO 23004KT 10SM CLR 12/04 A3016 RMK AO2 SLP178 T01170044
KLWT 130954Z AUTO 25006KT 10SM CLR 13/04 A3015 RMK AO2 SLP174 T01280044
KLWT 130854Z AUTO 23008KT 10SM CLR 13/04 A3014 RMK AO2 SLP170 T01280039 51015
KLWT 130754Z AUTO 26008KT 10SM CLR 14/04 A3013 RMK AO2 SLP166 T01390039